Time;durP1;ratioP1;P1;durP2;ratioP2;P2;SDS_P1;SDS_P2;PMS_P1;PMS_P2;Temp;Humidity;BMP_temperature;BMP_pressure;BME280_temperature;BME280_humidity;BME280_pressure;Samples;Min_cycle;Max_cycle;Signal;HPM_P1;HPM_P2
2022/01/11 00:00:00;;;;;;;;;;;21.60;45.50;;;;;;6300667;28;20017;-43
2022/01/11 00:03:02;;;;;;;;;;;21.10;45.20;;;;;;6296757;28;19928;-42
2022/01/11 00:06:17;;;;;;;;;;;21.50;45.40;;;;;;6295537;28;19958;-45
2022/01/11 00:09:21;;;;;;;;;;;21.10;45.20;;;;;;6296733;28;19932;-43
2022/01/11 00:12:23;;;;;;;;;;;21.30;45.30;;;;;;6299164;28;20052;-43
2022/01/11 00:15:26;;;;;;;;;;;21.00;45.10;;;;;;6295848;28;19955;-43
2022/01/11 00:18:27;;;;;;;;;;;21.10;45.20;;;;;;6294940;28;19998;-45
2022/01/11 00:21:29;;;;;;;;;;;21.40;45.40;;;;;;6285093;28;20791;-45
2022/01/11 00:24:32;;;;;;;;;;;21.70;45.60;;;;;;6296790;28;19962;-47
2022/01/11 00:27:33;;;;;;;;;;;21.00;45.30;;;;;;6302818;28;20006;-42
2022/01/11 00:30:38;;;;;;;;;;;21.00;45.30;;;;;;6306959;28;21137;-44
2022/01/11 00:33:43;;;;;;;;;;;21.00;45.20;;;;;;6275361;28;20041;-42
2022/01/11 00:36:44;;;;;;;;;;;20.70;45.10;;;;;;6306118;28;19991;-42
2022/01/11 00:39:46;;;;;;;;;;;21.40;45.50;;;;;;6309471;28;19978;-43
2022/01/11 00:42:48;;;;;;;;;;;21.20;45.30;;;;;;6306143;28;19953;-43
2022/01/11 00:45:51;;;;;;;;;;;21.00;45.30;;;;;;6310466;28;20039;-42
2022/01/11 00:48:52;;;;;;;;;;;21.10;45.30;;;;;;6285627;28;19977;-44
2022/01/11 00:51:53;;;;;;;;;;;21.10;45.30;;;;;;6305450;28;20047;-43
2022/01/11 00:54:55;;;;;;;;;;;21.10;45.40;;;;;;6305381;28;19997;-43
2022/01/11 00:57:57;;;;;;;;;;;20.80;45.20;;;;;;6282644;28;19927;-45
2022/01/11 01:00:59;;;;;;;;;;;21.20;45.30;;;;;;6310732;28;19928;-43
2022/01/11 01:04:00;;;;;;;;;;;21.00;45.30;;;;;;6306742;28;19928;-43
2022/01/11 01:07:02;;;;;;;;;;;21.10;45.40;;;;;;6306182;28;20779;-43
2022/01/11 01:10:12;;;;;;;;;;;20.90;45.40;;;;;;6305936;28;19928;-43
2022/01/11 01:13:18;;;;;;;;;;;20.90;45.20;;;;;;6309716;28;19931;-46
2022/01/11 01:16:23;;;;;;;;;;;21.10;45.30;;;;;;6308430;28;19971;-46
2022/01/11 01:19:33;;;;;;;;;;;20.90;45.30;;;;;;6309894;28;19928;-45
2022/01/11 01:22:34;;;;;;;;;;;21.30;45.40;;;;;;6303059;28;19931;-42
2022/01/11 01:25:36;;;;;;;;;;;21.10;45.40;;;;;;6308256;28;19928;-46
2022/01/11 01:28:37;;;;;;;;;;;21.00;45.40;;;;;;6303301;28;19989;-44
2022/01/11 01:31:39;;;;;;;;;;;20.90;45.30;;;;;;6298473;28;19967;-43
2022/01/11 01:34:41;;;;;;;;;;;20.90;45.30;;;;;;6307964;28;20379;-43
2022/01/11 01:37:42;;;;;;;;;;;21.50;45.60;;;;;;6312457;28;20086;-45
2022/01/11 01:40:46;;;;;;;;;;;21.00;45.30;;;;;;6312037;28;19931;-44
2022/01/11 01:43:49;;;;;;;;;;;20.90;45.30;;;;;;6297862;28;19935;-42
2022/01/11 01:46:51;;;;;;;;;;;20.90;45.20;;;;;;6288250;28;19927;-42
2022/01/11 01:49:53;;;;;;;;;;;20.90;45.30;;;;;;6314558;28;19927;-46
2022/01/11 01:52:55;;;;;;;;;;;21.40;45.50;;;;;;6254658;28;19935;-41
2022/01/11 01:55:57;;;;;;;;;;;21.00;45.20;;;;;;6288535;28;20214;-41
2022/01/11 01:58:58;;;;;;;;;;;20.90;45.30;;;;;;6294916;28;20127;-43
2022/01/11 02:02:00;;;;;;;;;;;21.30;45.50;;;;;;6298423;28;20137;-43
2022/01/11 02:05:02;;;;;;;;;;;20.90;45.20;;;;;;6305984;28;20389;-41
2022/01/11 02:08:05;;;;;;;;;;;21.40;45.50;;;;;;6306269;28;19959;-42
2022/01/11 02:11:07;;;;;;;;;;;20.80;45.20;;;;;;6272945;28;20313;-42
2022/01/11 02:14:09;;;;;;;;;;;21.10;45.40;;;;;;6291212;28;20043;-42
2022/01/11 02:17:11;;;;;;;;;;;20.90;45.30;;;;;;6278876;28;20433;-41
2022/01/11 02:20:14;;;;;;;;;;;21.00;45.40;;;;;;6293658;28;19927;-44
2022/01/11 02:23:17;;;;;;;;;;;21.30;45.50;;;;;;6292375;28;20382;-41
2022/01/11 02:26:18;;;;;;;;;;;21.00;45.20;;;;;;6262639;28;20466;-46
2022/01/11 02:29:20;;;;;;;;;;;21.20;45.40;;;;;;6295927;28;19927;-44
2022/01/11 02:32:21;;;;;;;;;;;21.20;45.50;;;;;;6292951;28;20690;-42
2022/01/11 02:35:26;;;;;;;;;;;20.90;45.30;;;;;;6283424;28;20584;-41
2022/01/11 02:38:28;;;;;;;;;;;21.10;45.30;;;;;;6283959;28;19924;-42
2022/01/11 02:41:30;;;;;;;;;;;20.90;45.30;;;;;;6281152;28;19937;-41
2022/01/11 02:44:37;;;;;;;;;;;20.80;45.20;;;;;;6274852;28;20366;-41
2022/01/11 02:47:39;;;;;;;;;;;20.80;45.30;;;;;;6289021;28;20320;-42
2022/01/11 02:50:45;;;;;;;;;;;20.90;45.40;;;;;;6296042;28;20937;-41
2022/01/11 02:53:49;;;;;;;;;;;21.30;45.40;;;;;;6302078;28;20609;-41
2022/01/11 02:56:51;;;;;;;;;;;21.00;45.40;;;;;;6297536;28;20013;-41
2022/01/11 02:59:52;;;;;;;;;;;20.90;45.30;;;;;;6300574;28;20908;-42
2022/01/11 03:02:55;;;;;;;;;;;21.10;46.10;;;;;;6299429;28;20615;-40
2022/01/11 03:06:02;;;;;;;;;;;20.90;45.40;;;;;;6278471;28;19928;-41
2022/01/11 03:09:07;;;;;;;;;;;20.80;45.30;;;;;;6293849;28;20322;-42
2022/01/11 03:12:11;;;;;;;;;;;20.80;45.40;;;;;;6291007;28;20327;-43
2022/01/11 03:15:13;;;;;;;;;;;21.20;45.50;;;;;;6288570;28;19938;-43
2022/01/11 03:18:17;;;;;;;;;;;21.30;45.50;;;;;;6304353;28;19986;-45
2022/01/11 03:21:22;;;;;;;;;;;21.10;45.50;;;;;;6300399;28;20066;-42
2022/01/11 03:24:24;;;;;;;;;;;21.30;45.50;;;;;;6305588;28;19960;-42
2022/01/11 03:27:25;;;;;;;;;;;20.90;45.40;;;;;;6300876;28;20358;-41
2022/01/11 03:30:27;;;;;;;;;;;20.80;45.40;;;;;;6308043;28;20505;-44
2022/01/11 03:33:31;;;;;;;;;;;21.00;45.50;;;;;;6310557;28;19927;-43
2022/01/11 03:36:33;;;;;;;;;;;20.50;45.20;;;;;;6300292;28;20058;-41
2022/01/11 03:39:34;;;;;;;;;;;20.90;45.40;;;;;;6296716;28;20024;-41
2022/01/11 03:42:36;;;;;;;;;;;20.60;45.30;;;;;;6296952;28;20581;-42
2022/01/11 03:45:38;;;;;;;;;;;20.80;45.20;;;;;;6301391;28;20326;-42
2022/01/11 03:48:44;;;;;;;;;;;21.10;45.40;;;;;;6300393;28;20383;-41
2022/01/11 03:51:49;;;;;;;;;;;20.70;45.30;;;;;;6292610;28;19928;-41
2022/01/11 03:55:03;;;;;;;;;;;21.40;45.70;;;;;;6291807;28;20354;-42
2022/01/11 03:58:11;;;;;;;;;;;21.30;45.70;;;;;;6302763;28;19934;-41
2022/01/11 04:01:12;;;;;;;;;;;20.70;45.30;;;;;;6312349;28;20004;-43
2022/01/11 04:04:15;;;;;;;;;;;21.20;45.70;;;;;;6299990;28;19928;-41
2022/01/11 04:07:17;;;;;;;;;;;20.80;45.40;;;;;;6279976;28;19935;-41
2022/01/11 04:10:18;;;;;;;;;;;21.10;45.50;;;;;;6291242;28;19931;-41
2022/01/11 04:13:19;;;;;;;;;;;20.70;45.40;;;;;;6298875;28;19967;-41
2022/01/11 04:16:21;;;;;;;;;;;21.00;45.50;;;;;;6295125;28;20345;-41
2022/01/11 04:19:23;;;;;;;;;;;20.80;45.40;;;;;;6280018;28;19935;-43
2022/01/11 04:22:26;;;;;;;;;;;20.80;45.40;;;;;;6322128;28;19927;-45
2022/01/11 04:25:27;;;;;;;;;;;21.20;45.60;;;;;;6304394;28;19931;-41
2022/01/11 04:28:31;;;;;;;;;;;21.10;45.60;;;;;;6312403;28;19934;-46
2022/01/11 04:31:34;;;;;;;;;;;20.80;45.30;;;;;;6293660;28;20538;-42
2022/01/11 04:34:41;;;;;;;;;;;20.90;45.60;;;;;;6313785;28;19982;-44
2022/01/11 04:37:44;;;;;;;;;;;20.70;45.40;;;;;;6297715;28;20021;-43
2022/01/11 04:40:45;;;;;;;;;;;20.70;45.30;;;;;;6307528;28;20862;-42
2022/01/11 04:43:48;;;;;;;;;;;20.60;45.30;;;;;;6306918;28;19923;-41
2022/01/11 04:46:50;;;;;;;;;;;20.70;45.40;;;;;;6313732;28;19934;-46
2022/01/11 04:49:52;;;;;;;;;;;20.80;45.40;;;;;;6291202;28;19934;-44
2022/01/11 04:52:54;;;;;;;;;;;21.20;45.70;;;;;;6313450;28;19934;-43
2022/01/11 04:55:57;;;;;;;;;;;21.20;45.70;;;;;;6284649;28;20062;-44
2022/01/11 04:58:59;;;;;;;;;;;20.80;45.50;;;;;;6310758;28;19931;-46
2022/01/11 05:02:00;;;;;;;;;;;20.80;45.50;;;;;;6304846;28;21491;-46
2022/01/11 05:05:03;;;;;;;;;;;21.00;45.60;;;;;;6312179;27;19934;-45
2022/01/11 05:08:07;;;;;;;;;;;20.80;45.40;;;;;;6311041;28;20046;-43
2022/01/11 05:11:08;;;;;;;;;;;21.20;45.70;;;;;;6316881;28;19967;-47
2022/01/11 05:14:11;;;;;;;;;;;20.90;45.60;;;;;;6314079;28;19978;-41
2022/01/11 05:17:17;;;;;;;;;;;20.80;45.50;;;;;;6308293;28;19934;-42
2022/01/11 05:20:19;;;;;;;;;;;20.70;45.40;;;;;;6307272;28;20547;-43
2022/01/11 05:23:21;;;;;;;;;;;20.90;45.40;;;;;;6302948;28;21018;-41
2022/01/11 05:26:22;;;;;;;;;;;21.30;45.70;;;;;;6310381;28;20807;-46
2022/01/11 05:29:24;;;;;;;;;;;20.90;45.50;;;;;;6312878;28;20034;-47
2022/01/11 05:32:25;;;;;;;;;;;20.80;45.40;;;;;;6311811;28;19928;-44
2022/01/11 05:35:27;;;;;;;;;;;20.70;45.40;;;;;;6290293;28;19928;-42
2022/01/11 05:38:30;;;;;;;;;;;20.60;45.40;;;;;;6307430;28;19923;-43
2022/01/11 05:41:32;;;;;;;;;;;20.80;45.50;;;;;;6313510;28;20021;-45
2022/01/11 05:44:34;;;;;;;;;;;20.60;45.40;;;;;;6284879;28;19928;-43
2022/01/11 05:47:35;;;;;;;;;;;20.80;45.50;;;;;;6299921;28;19927;-41
2022/01/11 05:50:38;;;;;;;;;;;20.90;45.60;;;;;;6302001;28;20680;-43
2022/01/11 05:53:43;;;;;;;;;;;21.00;45.70;;;;;;6303851;28;19923;-42
2022/01/11 05:56:45;;;;;;;;;;;21.30;45.70;;;;;;6283189;28;19933;-50
2022/01/11 05:59:46;;;;;;;;;;;20.70;45.60;;;;;;6305104;28;19927;-46
2022/01/11 06:02:52;;;;;;;;;;;20.60;45.50;;;;;;6303367;28;20038;-44
2022/01/11 06:06:04;;;;;;;;;;;20.80;45.60;;;;;;6301167;28;19934;-44
2022/01/11 06:09:09;;;;;;;;;;;20.70;45.60;;;;;;6299694;28;19966;-47
2022/01/11 06:12:11;;;;;;;;;;;21.00;45.70;;;;;;6295377;28;19927;-43
2022/01/11 06:15:14;;;;;;;;;;;20.90;45.70;;;;;;6299609;28;19935;-45
2022/01/11 06:18:17;;;;;;;;;;;20.70;45.60;;;;;;6298532;28;19920;-47
2022/01/11 06:21:35;;;;;;;;;;;21.10;45.60;;;;;;6299999;28;19928;-46
2022/01/11 06:24:38;;;;;;;;;;;20.90;45.70;;;;;;6295859;28;19927;-44
2022/01/11 06:27:40;;;;;;;;;;;21.20;45.70;;;;;;6297941;28;19949;-41
2022/01/11 06:30:48;;;;;;;;;;;21.10;45.80;;;;;;6297554;28;20017;-44
2022/01/11 06:33:50;;;;;;;;;;;20.70;45.60;;;;;;6298353;28;20856;-44
2022/01/11 06:36:54;;;;;;;;;;;21.00;45.70;;;;;;6298367;28;20743;-45
2022/01/11 06:39:56;;;;;;;;;;;20.60;45.50;;;;;;6293547;28;19928;-46
2022/01/11 06:42:57;;;;;;;;;;;21.00;45.70;;;;;;6294943;28;19928;-45
2022/01/11 06:45:59;;;;;;;;;;;21.00;45.60;;;;;;6297269;28;20044;-43
2022/01/11 06:49:01;;;;;;;;;;;20.60;45.30;;;;;;6291776;28;19967;-45
2022/01/11 06:52:03;;;;;;;;;;;20.80;45.50;;;;;;6296293;28;19920;-47
2022/01/11 06:55:07;;;;;;;;;;;21.00;45.40;;;;;;6294898;27;19923;-43
2022/01/11 06:58:09;;;;;;;;;;;21.20;45.30;;;;;;6271882;28;19934;-45
2022/01/11 07:01:12;;;;;;;;;;;21.00;45.30;;;;;;6279328;28;19935;-46
2022/01/11 07:04:17;;;;;;;;;;;20.90;45.20;;;;;;6274378;28;19923;-44
2022/01/11 07:07:23;;;;;;;;;;;21.70;46.00;;;;;;6282242;28;20058;-47
2022/01/11 07:10:25;;;;;;;;;;;21.00;45.10;;;;;;6273334;28;20624;-44
2022/01/11 07:13:27;;;;;;;;;;;21.00;44.90;;;;;;6268404;28;20000;-45
2022/01/11 07:16:28;;;;;;;;;;;21.00;44.90;;;;;;6265252;28;19974;-44
2022/01/11 07:19:30;;;;;;;;;;;21.10;44.80;;;;;;6261504;28;19928;-44
2022/01/11 07:22:37;;;;;;;;;;;21.40;45.00;;;;;;6263251;28;19920;-44
2022/01/11 07:25:41;;;;;;;;;;;21.50;44.90;;;;;;6267412;28;19935;-43
2022/01/11 07:28:42;;;;;;;;;;;21.50;45.00;;;;;;6241310;27;19933;-45
2022/01/11 07:31:48;;;;;;;;;;;20.90;44.60;;;;;;6274649;28;19927;-43
2022/01/11 07:34:52;;;;;;;;;;;21.20;44.70;;;;;;6244978;28;21152;-46
2022/01/11 07:37:54;;;;;;;;;;;21.30;44.80;;;;;;6251825;28;19934;-48
2022/01/11 07:40:56;;;;;;;;;;;21.10;44.60;;;;;;6259074;28;21213;-43
2022/01/11 07:44:12;;;;;;;;;;;21.50;44.70;;;;;;6253756;28;20037;-41
2022/01/11 07:47:15;;;;;;;;;;;21.00;44.60;;;;;;6248769;28;19962;-43
2022/01/11 07:50:19;;;;;;;;;;;21.40;44.70;;;;;;6226872;28;19928;-47
2022/01/11 07:53:21;;;;;;;;;;;21.30;44.60;;;;;;6236498;28;19927;-43
2022/01/11 07:56:29;;;;;;;;;;;21.50;44.70;;;;;;6205768;28;19928;-43
2022/01/11 07:59:31;;;;;;;;;;;21.30;44.50;;;;;;6212387;28;20063;-46
2022/01/11 08:02:54;;;;;;;;;;;21.20;44.40;;;;;;6178703;28;19990;-42
2022/01/11 08:06:11;;;;;;;;;;;21.30;44.50;;;;;;6190822;28;19951;-42
2022/01/11 08:09:15;;;;;;;;;;;21.80;45.20;;;;;;6207760;28;19928;-42
2022/01/11 08:12:18;;;;;;;;;;;21.80;44.80;;;;;;6189798;28;21631;-48
2022/01/11 08:15:20;;;;;;;;;;;22.00;44.70;;;;;;6196544;28;19934;-47
2022/01/11 08:18:21;;;;;;;;;;;22.00;44.60;;;;;;6169260;28;20009;-49
2022/01/11 08:21:24;;;;;;;;;;;22.00;44.60;;;;;;6200032;28;19928;-50
2022/01/11 08:24:27;;;;;;;;;;;21.70;44.30;;;;;;6216951;28;19928;-47
2022/01/11 08:27:31;;;;;;;;;;;21.50;44.10;;;;;;6197487;28;20005;-49
2022/01/11 08:30:34;;;;;;;;;;;21.90;44.30;;;;;;6187717;28;19942;-50
2022/01/11 08:33:40;;;;;;;;;;;22.10;44.40;;;;;;6205628;28;20124;-45
2022/01/11 08:36:43;;;;;;;;;;;22.10;44.40;;;;;;6207784;28;19927;-46
2022/01/11 08:39:44;;;;;;;;;;;21.70;44.10;;;;;;6196888;28;20042;-49
2022/01/11 08:42:47;;;;;;;;;;;21.60;44.00;;;;;;6216748;28;19928;-47
2022/01/11 08:45:48;;;;;;;;;;;21.80;44.20;;;;;;6205867;28;21257;-43
2022/01/11 08:48:52;;;;;;;;;;;21.70;44.10;;;;;;6198828;28;19962;-45
2022/01/11 08:51:54;;;;;;;;;;;21.70;44.10;;;;;;6208363;28;19928;-46
2022/01/11 08:54:56;;;;;;;;;;;22.20;44.30;;;;;;6196853;28;19998;-44
2022/01/11 08:57:58;;;;;;;;;;;22.00;44.20;;;;;;6201446;28;20925;-48
2022/01/11 09:00:59;;;;;;;;;;;22.00;44.20;;;;;;6195238;28;19927;-45
2022/01/11 09:04:05;;;;;;;;;;;21.80;44.00;;;;;;6207070;28;20050;-46
2022/01/11 09:07:16;;;;;;;;;;;22.30;44.30;;;;;;6196448;28;19970;-47
2022/01/11 09:10:19;;;;;;;;;;;22.00;44.00;;;;;;6207323;28;21816;-46
2022/01/11 09:13:25;;;;;;;;;;;22.30;44.10;;;;;;6212848;28;19928;-50
2022/01/11 09:16:26;;;;;;;;;;;22.30;44.20;;;;;;6214959;28;19928;-45
2022/01/11 09:19:29;;;;;;;;;;;21.90;44.00;;;;;;6201352;28;20061;-43
2022/01/11 09:22:31;;;;;;;;;;;22.30;44.10;;;;;;6218863;28;21159;-43
2022/01/11 09:25:33;;;;;;;;;;;22.30;44.00;;;;;;6228255;28;19928;-43
2022/01/11 09:28:40;;;;;;;;;;;22.00;43.90;;;;;;6223189;28;20028;-46
2022/01/11 09:31:42;;;;;;;;;;;22.30;43.90;;;;;;6198246;28;20097;-44
2022/01/11 09:34:44;;;;;;;;;;;22.10;43.80;;;;;;6210175;28;19978;-46
2022/01/11 09:37:54;;;;;;;;;;;22.50;44.10;;;;;;6206316;28;21717;-44
2022/01/11 09:40:57;;;;;;;;;;;22.20;43.80;;;;;;6218161;28;21471;-43
2022/01/11 09:44:01;;;;;;;;;;;22.40;43.90;;;;;;6206504;28;19927;-43
2022/01/11 09:47:05;;;;;;;;;;;22.40;43.80;;;;;;6181561;28;19927;-45
2022/01/11 09:50:08;;;;;;;;;;;22.60;43.90;;;;;;6217182;28;19988;-46
2022/01/11 09:53:10;;;;;;;;;;;22.40;43.70;;;;;;6206551;28;19932;-43
2022/01/11 09:56:17;;;;;;;;;;;22.30;43.70;;;;;;6190608;28;21053;-41
2022/01/11 09:59:19;;;;;;;;;;;22.70;43.80;;;;;;6194521;28;19928;-44
2022/01/11 10:02:35;;;;;;;;;;;22.60;43.90;;;;;;6199040;28;19934;-43
2022/01/11 10:05:49;;;;;;;;;;;22.50;43.70;;;;;;6187340;28;20123;-42
2022/01/11 10:09:06;;;;;;;;;;;22.50;43.70;;;;;;6205948;28;19962;-46
2022/01/11 10:12:12;;;;;;;;;;;22.50;43.70;;;;;;6192957;28;20058;-44
2022/01/11 10:15:15;;;;;;;;;;;22.60;43.70;;;;;;6206517;28;19928;-47
2022/01/11 10:18:32;;;;;;;;;;;22.90;43.90;;;;;;6210947;28;19932;-45
2022/01/11 10:21:34;;;;;;;;;;;22.70;43.60;;;;;;6198437;28;19931;-42
2022/01/11 10:24:39;;;;;;;;;;;22.60;43.60;;;;;;6219292;28;19934;-47
2022/01/11 10:27:53;;;;;;;;;;;22.70;43.70;;;;;;6184892;28;19936;-46
2022/01/11 10:30:55;;;;;;;;;;;22.70;43.70;;;;;;6190239;28;19927;-43
2022/01/11 10:34:00;;;;;;;;;;;22.60;43.80;;;;;;6213320;28;19962;-43
2022/01/11 10:37:03;;;;;;;;;;;22.40;43.60;;;;;;6209012;28;19931;-43
2022/01/11 10:40:11;;;;;;;;;;;22.60;43.80;;;;;;6186025;28;19927;-42
2022/01/11 10:43:14;;;;;;;;;;;22.60;43.70;;;;;;6197847;28;19928;-45
2022/01/11 10:46:18;;;;;;;;;;;22.40;43.70;;;;;;6189399;28;19986;-45
2022/01/11 10:49:37;;;;;;;;;;;22.70;43.70;;;;;;6222973;28;19928;-46
2022/01/11 10:52:40;;;;;;;;;;;22.70;43.70;;;;;;6217137;28;19928;-45
2022/01/11 10:55:48;;;;;;;;;;;22.80;43.60;;;;;;6190191;28;19927;-48
2022/01/11 10:59:16;;;;;;;;;;;22.90;43.70;;;;;;6165504;28;20390;-45
2022/01/11 11:02:25;;;;;;;;;;;22.80;43.50;;;;;;6202415;28;22030;-45
2022/01/11 11:05:30;;;;;;;;;;;22.70;43.40;;;;;;6190802;28;19928;-43
2022/01/11 11:08:39;;;;;;;;;;;23.00;43.60;;;;;;6182599;28;19934;-42
2022/01/11 11:12:10;;;;;;;;;;;22.90;43.50;;;;;;6194489;28;19936;-45
2022/01/11 11:15:28;;;;;;;;;;;22.60;43.30;;;;;;6201417;28;19982;-45
2022/01/11 11:18:45;;;;;;;;;;;22.80;43.40;;;;;;6192757;28;19935;-43
2022/01/11 11:21:52;;;;;;;;;;;23.20;43.60;;;;;;6192269;28;19935;-43
2022/01/11 11:24:53;;;;;;;;;;;22.90;43.50;;;;;;6214351;28;19928;-45
2022/01/11 11:27:55;;;;;;;;;;;22.80;43.40;;;;;;6210530;28;19927;-45
2022/01/11 11:30:57;;;;;;;;;;;23.00;43.60;;;;;;6185122;28;19928;-46
2022/01/11 11:33:59;;;;;;;;;;;22.70;43.40;;;;;;6207126;28;21326;-43
2022/01/11 11:37:03;;;;;;;;;;;23.00;43.60;;;;;;6221956;28;19935;-43
2022/01/11 11:40:06;;;;;;;;;;;22.90;43.60;;;;;;6224306;28;20032;-46
2022/01/11 11:43:10;;;;;;;;;;;22.80;43.50;;;;;;6219344;28;20047;-44
2022/01/11 11:46:11;;;;;;;;;;;22.90;43.60;;;;;;6224142;28;19928;-45
2022/01/11 11:49:14;;;;;;;;;;;22.90;43.60;;;;;;6216711;28;19928;-44
2022/01/11 11:52:17;;;;;;;;;;;22.70;43.50;;;;;;6217757;28;19927;-43
2022/01/11 11:55:20;;;;;;;;;;;22.70;43.50;;;;;;6212528;28;20045;-44
2022/01/11 11:58:22;;;;;;;;;;;23.10;43.70;;;;;;6222827;28;21089;-45
2022/01/11 12:01:41;;;;;;;;;;;22.80;43.60;;;;;;6215475;28;20371;-43
2022/01/11 12:04:55;;;;;;;;;;;23.10;43.70;;;;;;6223276;28;19990;-43
2022/01/11 12:07:57;;;;;;;;;;;22.60;43.40;;;;;;6226875;28;21286;-46
2022/01/11 12:11:02;;;;;;;;;;;22.90;43.60;;;;;;6214342;28;19931;-46
2022/01/11 12:14:04;;;;;;;;;;;23.00;43.60;;;;;;6219810;28;20889;-44
2022/01/11 12:17:25;;;;;;;;;;;22.90;43.60;;;;;;6220902;28;20925;-45
2022/01/11 12:20:37;;;;;;;;;;;23.00;43.60;;;;;;6230272;28;19936;-48
2022/01/11 12:23:54;;;;;;;;;;;23.00;43.60;;;;;;6224983;28;21672;-44
2022/01/11 12:26:57;;;;;;;;;;;22.70;43.40;;;;;;6215317;28;19932;-46
2022/01/11 12:30:01;;;;;;;;;;;22.90;43.60;;;;;;6219170;28;21536;-44
2022/01/11 12:33:07;;;;;;;;;;;22.80;43.50;;;;;;6233534;28;19935;-45
2022/01/11 12:36:09;;;;;;;;;;;23.20;43.80;;;;;;6219957;28;21221;-43
2022/01/11 12:39:10;;;;;;;;;;;23.20;43.70;;;;;;6218356;28;19927;-51
2022/01/11 12:42:25;;;;;;;;;;;22.90;43.60;;;;;;6212231;28;19935;-49
2022/01/11 12:45:41;;;;;;;;;;;22.60;43.40;;;;;;6217873;28;20818;-50
2022/01/11 12:48:53;;;;;;;;;;;23.00;43.60;;;;;;6216202;28;20023;-44
2022/01/11 12:51:58;;;;;;;;;;;22.70;43.50;;;;;;6200743;28;19928;-44
2022/01/11 12:54:59;;;;;;;;;;;22.90;43.60;;;;;;6214823;28;20005;-46
2022/01/11 12:58:03;;;;;;;;;;;22.40;43.30;;;;;;6202700;28;19935;-47
2022/01/11 13:01:14;;;;;;;;;;;23.10;43.60;;;;;;6182284;28;20973;-44
2022/01/11 13:04:16;;;;;;;;;;;22.80;43.50;;;;;;6171162;28;20017;-45
2022/01/11 13:07:20;;;;;;;;;;;23.10;43.70;;;;;;6162507;28;19927;-49
2022/01/11 13:10:22;;;;;;;;;;;22.70;43.50;;;;;;6181790;28;20065;-48
2022/01/11 13:13:26;;;;;;;;;;;23.10;43.70;;;;;;6170626;28;19928;-51
2022/01/11 13:16:29;;;;;;;;;;;23.10;43.60;;;;;;6164427;28;20038;-50
2022/01/11 13:19:31;;;;;;;;;;;23.10;43.60;;;;;;6192380;28;19928;-49
2022/01/11 13:22:35;;;;;;;;;;;23.20;43.60;;;;;;6198740;28;19935;-49
2022/01/11 13:25:38;;;;;;;;;;;23.10;43.50;;;;;;6181425;28;19931;-44
2022/01/11 13:28:42;;;;;;;;;;;22.90;43.30;;;;;;6195086;28;20838;-46
2022/01/11 13:31:47;;;;;;;;;;;23.10;43.40;;;;;;6189190;28;19934;-50
2022/01/11 13:34:48;;;;;;;;;;;22.90;43.30;;;;;;6209178;28;21218;-46
2022/01/11 13:37:50;;;;;;;;;;;23.10;43.40;;;;;;6194490;28;19934;-50
2022/01/11 13:40:51;;;;;;;;;;;23.10;43.30;;;;;;6204700;28;19935;-44
2022/01/11 13:43:56;;;;;;;;;;;22.80;43.20;;;;;;6223449;28;19927;-46
2022/01/11 13:46:58;;;;;;;;;;;22.90;43.30;;;;;;6177806;28;19970;-47
2022/01/11 13:49:59;;;;;;;;;;;23.10;43.40;;;;;;6201540;28;19935;-48
2022/01/11 13:53:01;;;;;;;;;;;23.20;43.50;;;;;;6201922;28;19963;-50
2022/01/11 13:56:05;;;;;;;;;;;23.20;43.50;;;;;;6187626;28;19927;-48
2022/01/11 13:59:08;;;;;;;;;;;22.70;43.30;;;;;;6184855;28;19919;-50
2022/01/11 14:02:13;;;;;;;;;;;23.20;43.40;;;;;;6209074;28;19963;-46
2022/01/11 14:05:18;;;;;;;;;;;23.20;43.50;;;;;;6199242;28;19928;-49
2022/01/11 14:08:27;;;;;;;;;;;23.40;44.10;;;;;;6193818;28;20028;-51
2022/01/11 14:11:31;;;;;;;;;;;23.10;43.30;;;;;;6196101;28;21112;-45
2022/01/11 14:14:34;;;;;;;;;;;23.50;43.50;;;;;;6209330;28;21447;-48
2022/01/11 14:17:38;;;;;;;;;;;23.10;43.20;;;;;;6194149;28;19928;-48
2022/01/11 14:20:41;;;;;;;;;;;23.30;43.30;;;;;;6198372;28;20062;-50
2022/01/11 14:23:50;;;;;;;;;;;23.50;43.30;;;;;;6214664;28;19934;-47
2022/01/11 14:26:51;;;;;;;;;;;23.40;43.30;;;;;;6208322;28;20037;-46
2022/01/11 14:29:55;;;;;;;;;;;23.40;43.20;;;;;;6198897;28;21589;-43
2022/01/11 14:32:57;;;;;;;;;;;23.40;43.20;;;;;;6168643;28;19927;-50
2022/01/11 14:36:00;;;;;;;;;;;23.10;43.10;;;;;;6203625;28;20126;-43
2022/01/11 14:39:06;;;;;;;;;;;23.30;43.20;;;;;;6203327;28;21116;-47
2022/01/11 14:42:09;;;;;;;;;;;23.30;43.20;;;;;;6200293;28;19928;-43
2022/01/11 14:45:12;;;;;;;;;;;23.40;43.20;;;;;;6209670;28;21391;-45
2022/01/11 14:48:26;;;;;;;;;;;23.10;43.00;;;;;;6203764;28;19943;-48
2022/01/11 14:51:27;;;;;;;;;;;23.40;43.10;;;;;;6194889;28;19993;-46
2022/01/11 14:54:30;;;;;;;;;;;23.40;43.20;;;;;;6213587;28;20871;-47
2022/01/11 14:57:31;;;;;;;;;;;23.50;43.20;;;;;;6170650;28;19928;-47
2022/01/11 15:00:33;;;;;;;;;;;23.30;43.10;;;;;;6195432;28;19929;-46
2022/01/11 15:03:36;;;;;;;;;;;23.50;43.20;;;;;;6192467;28;19927;-49
2022/01/11 15:06:38;;;;;;;;;;;23.20;43.10;;;;;;6200566;28;19963;-46
2022/01/11 15:09:41;;;;;;;;;;;23.50;43.10;;;;;;6191079;28;19969;-44
2022/01/11 15:12:43;;;;;;;;;;;23.40;43.10;;;;;;6205536;28;20873;-48
2022/01/11 15:15:45;;;;;;;;;;;23.60;43.20;;;;;;6230179;28;19928;-45
2022/01/11 15:18:48;;;;;;;;;;;23.50;43.10;;;;;;6221677;28;19927;-46
2022/01/11 15:21:49;;;;;;;;;;;23.50;43.10;;;;;;6195468;28;19928;-49
2022/01/11 15:24:51;;;;;;;;;;;23.20;43.10;;;;;;6202117;28;19961;-47
2022/01/11 15:27:53;;;;;;;;;;;23.50;43.30;;;;;;6207976;28;19985;-45
2022/01/11 15:30:55;;;;;;;;;;;23.60;43.20;;;;;;6203873;28;19928;-45
2022/01/11 15:34:03;;;;;;;;;;;23.60;43.30;;;;;;6201137;28;19942;-47
2022/01/11 15:37:04;;;;;;;;;;;23.10;43.00;;;;;;6210092;28;20009;-46
2022/01/11 15:40:08;;;;;;;;;;;23.50;43.30;;;;;;6218541;28;20057;-44
2022/01/11 15:43:10;;;;;;;;;;;23.60;43.20;;;;;;6214773;28;21828;-45
2022/01/11 15:46:11;;;;;;;;;;;23.40;43.10;;;;;;6209888;28;19928;-45
2022/01/11 15:49:13;;;;;;;;;;;23.40;43.10;;;;;;6209705;28;19934;-45
2022/01/11 15:52:16;;;;;;;;;;;23.70;43.30;;;;;;6201299;28;21460;-45
2022/01/11 15:55:19;;;;;;;;;;;23.50;43.10;;;;;;6207602;28;19967;-45
2022/01/11 15:58:21;;;;;;;;;;;23.50;43.10;;;;;;6205915;28;19928;-47
2022/01/11 16:01:23;;;;;;;;;;;23.70;43.20;;;;;;6198010;28;19932;-48
2022/01/11 16:04:25;;;;;;;;;;;23.70;43.20;;;;;;6196575;28;19967;-47
2022/01/11 16:07:27;;;;;;;;;;;23.50;43.70;;;;;;6202684;28;19932;-44
2022/01/11 16:10:28;;;;;;;;;;;23.70;43.20;;;;;;6218276;28;19934;-43
2022/01/11 16:13:29;;;;;;;;;;;23.20;42.90;;;;;;6224694;28;20072;-44
2022/01/11 16:16:31;;;;;;;;;;;23.60;43.10;;;;;;6231234;28;21046;-45
2022/01/11 16:19:33;;;;;;;;;;;23.60;43.20;;;;;;6212855;28;19927;-46
2022/01/11 16:22:34;;;;;;;;;;;23.60;43.30;;;;;;6217992;28;19928;-48
2022/01/11 16:25:36;;;;;;;;;;;23.30;43.10;;;;;;6216089;28;19928;-45
2022/01/11 16:28:37;;;;;;;;;;;23.30;43.10;;;;;;6212263;28;19971;-47
2022/01/11 16:31:40;;;;;;;;;;;23.50;43.30;;;;;;6197557;28;19928;-47
2022/01/11 16:34:42;;;;;;;;;;;23.50;43.30;;;;;;6220445;28;19934;-45
2022/01/11 16:37:44;;;;;;;;;;;23.60;43.40;;;;;;6220175;28;20614;-44
2022/01/11 16:44:02;;;;;;;;;;;23.40;43.30;;;;;;6198758;28;19928;-49
2022/01/11 16:47:04;;;;;;;;;;;23.50;44.00;;;;;;6210600;28;20000;-47
2022/01/11 16:50:06;;;;;;;;;;;23.40;43.30;;;;;;6221913;28;19928;-44
2022/01/11 16:53:09;;;;;;;;;;;23.50;43.50;;;;;;6212633;28;21121;-43
2022/01/11 16:56:10;;;;;;;;;;;23.40;43.30;;;;;;6209895;28;20007;-45
2022/01/11 16:59:12;;;;;;;;;;;23.30;43.30;;;;;;6225308;28;20903;-45
2022/01/11 17:02:14;;;;;;;;;;;23.10;43.20;;;;;;6211574;27;19928;-46
2022/01/11 17:05:15;;;;;;;;;;;23.40;43.50;;;;;;6234142;28;20087;-45
2022/01/11 17:08:17;;;;;;;;;;;23.30;43.40;;;;;;6230701;28;19933;-48
2022/01/11 17:11:18;;;;;;;;;;;23.10;43.30;;;;;;6232413;28;20008;-45
2022/01/11 17:14:20;;;;;;;;;;;23.10;43.40;;;;;;6243220;28;21012;-48
2022/01/11 17:17:21;;;;;;;;;;;23.30;43.40;;;;;;6234642;28;19927;-44
2022/01/11 17:20:23;;;;;;;;;;;23.20;43.50;;;;;;6242426;28;20112;-47
2022/01/11 17:23:25;;;;;;;;;;;23.30;43.60;;;;;;6241978;28;19927;-44
2022/01/11 17:26:26;;;;;;;;;;;23.10;43.50;;;;;;6250203;28;19982;-44
2022/01/11 17:29:27;;;;;;;;;;;23.00;43.50;;;;;;6245205;28;19927;-45
2022/01/11 17:32:32;;;;;;;;;;;23.00;43.50;;;;;;6244640;28;19928;-48
2022/01/11 17:35:37;;;;;;;;;;;23.20;43.70;;;;;;6243128;28;19928;-46
2022/01/11 17:38:38;;;;;;;;;;;23.20;43.80;;;;;;6242733;28;20073;-43
2022/01/11 17:41:39;;;;;;;;;;;23.00;43.70;;;;;;6239140;28;21033;-47
2022/01/11 17:44:41;;;;;;;;;;;23.00;43.70;;;;;;6249092;28;20060;-46
2022/01/11 17:47:44;;;;;;;;;;;23.00;43.70;;;;;;6237988;28;20810;-44
2022/01/11 17:50:45;;;;;;;;;;;23.10;43.80;;;;;;6253802;28;19928;-47